sensor_id;sensor_type;location;lat;lon;timestamp;pressure;altitude;pressure_sealevel;temperature;humidity
49044;BME280;34860;48.066;14.124;2023-07-13T00:00:26;96510.00;;;20.48;57.04
49044;BME280;34860;48.066;14.124;2023-07-13T00:03:14;96506.41;;;20.47;57.08
49044;BME280;34860;48.066;14.124;2023-07-13T00:06:02;96499.22;;;20.46;57.23
49044;BME280;34860;48.066;14.124;2023-07-13T00:08:51;96499.72;;;20.45;57.25
49044;BME280;34860;48.066;14.124;2023-07-13T00:11:40;96494.59;;;20.43;57.24
49044;BME280;34860;48.066;14.124;2023-07-13T00:14:31;96504.59;;;20.44;57.24
49044;BME280;34860;48.066;14.124;2023-07-13T00:17:19;96522.56;;;20.41;57.45
49044;BME280;34860;48.066;14.124;2023-07-13T00:20:09;96519.22;;;20.43;57.38
49044;BME280;34860;48.066;14.124;2023-07-13T00:23:00;96515.84;;;20.39;57.28
49044;BME280;34860;48.066;14.124;2023-07-13T00:25:49;96505.88;;;20.38;57.42
49044;BME280;34860;48.066;14.124;2023-07-13T00:28:39;96514.34;;;20.38;57.47
49044;BME280;34860;48.066;14.124;2023-07-13T00:31:30;96513.53;;;20.37;57.58
49044;BME280;34860;48.066;14.124;2023-07-13T00:34:18;96503.03;;;20.38;57.55
49044;BME280;34860;48.066;14.124;2023-07-13T00:37:08;96488.41;;;20.33;57.72
49044;BME280;34860;48.066;14.124;2023-07-13T00:39:58;96483.50;;;20.34;57.46
49044;BME280;34860;48.066;14.124;2023-07-13T00:42:47;96468.63;;;20.33;57.57
49044;BME280;34860;48.066;14.124;2023-07-13T00:49:06;96461.44;;;20.32;57.67
49044;BME280;34860;48.066;14.124;2023-07-13T00:51:57;96477.59;;;20.32;57.76
49044;BME280;34860;48.066;14.124;2023-07-13T00:54:46;96487.63;;;20.33;57.76
49044;BME280;34860;48.066;14.124;2023-07-13T00:57:35;96474.78;;;20.32;58.01
49044;BME280;34860;48.066;14.124;2023-07-13T01:00:27;96467.88;;;20.33;57.82
49044;BME280;34860;48.066;14.124;2023-07-13T01:03:18;96476.59;;;20.35;57.65
49044;BME280;34860;48.066;14.124;2023-07-13T01:06:08;96466.31;;;20.32;57.89
49044;BME280;34860;48.066;14.124;2023-07-13T01:08:58;96471.97;;;20.32;57.93
49044;BME280;34860;48.066;14.124;2023-07-13T01:11:48;96469.16;;;20.32;58.04
49044;BME280;34860;48.066;14.124;2023-07-13T01:14:36;96474.28;;;20.33;57.96
49044;BME280;34860;48.066;14.124;2023-07-13T01:17:26;96471.97;;;20.32;58.03
49044;BME280;34860;48.066;14.124;2023-07-13T01:20:16;96474.78;;;20.32;58.10
49044;BME280;34860;48.066;14.124;2023-07-13T01:23:09;96488.91;;;20.32;58.14
49044;BME280;34860;48.066;14.124;2023-07-13T01:25:58;96490.97;;;20.31;58.08
49044;BME280;34860;48.066;14.124;2023-07-13T01:28:47;96487.34;;;20.31;58.19
49044;BME280;34860;48.066;14.124;2023-07-13T01:31:35;96501.47;;;20.31;58.17
49044;BME280;34860;48.066;14.124;2023-07-13T01:34:24;96518.38;;;20.31;58.24
49044;BME280;34860;48.066;14.124;2023-07-13T01:37:13;96516.88;;;20.30;58.38
49044;BME280;34860;48.066;14.124;2023-07-13T01:40:04;96533.00;;;20.29;58.43
49044;BME280;34860;48.066;14.124;2023-07-13T01:42:54;96547.13;;;20.29;58.37
49044;BME280;34860;48.066;14.124;2023-07-13T01:45:44;96562.28;;;20.32;58.45
49044;BME280;34860;48.066;14.124;2023-07-13T01:48:32;96565.59;;;20.30;58.52
49044;BME280;34860;48.066;14.124;2023-07-13T01:51:20;96569.97;;;20.31;58.33
49044;BME280;34860;48.066;14.124;2023-07-13T01:54:09;96571.75;;;20.29;58.35
49044;BME280;34860;48.066;14.124;2023-07-13T01:56:59;96564.59;;;20.28;58.37
49044;BME280;34860;48.066;14.124;2023-07-13T01:59:48;96573.56;;;20.26;58.21
49044;BME280;34860;48.066;14.124;2023-07-13T02:02:36;96575.31;;;20.24;58.55
49044;BME280;34860;48.066;14.124;2023-07-13T02:05:25;96563.00;;;20.21;58.64
49044;BME280;34860;48.066;14.124;2023-07-13T02:08:14;96558.34;;;20.18;58.55
49044;BME280;34860;48.066;14.124;2023-07-13T02:11:03;96543.97;;;20.16;58.67
49044;BME280;34860;48.066;14.124;2023-07-13T02:13:53;96551.94;;;20.18;58.62
49044;BME280;34860;48.066;14.124;2023-07-13T02:16:42;96560.16;;;20.16;58.80
49044;BME280;34860;48.066;14.124;2023-07-13T02:19:31;96566.56;;;20.16;58.81
49044;BME280;34860;48.066;14.124;2023-07-13T02:22:20;96561.69;;;20.17;58.89
49044;BME280;34860;48.066;14.124;2023-07-13T02:25:10;96568.13;;;20.17;58.91
49044;BME280;34860;48.066;14.124;2023-07-13T02:27:59;96562.97;;;20.16;58.89
49044;BME280;34860;48.066;14.124;2023-07-13T02:30:49;96562.97;;;20.16;58.93
49044;BME280;34860;48.066;14.124;2023-07-13T02:33:38;96563.72;;;20.16;58.92
49044;BME280;34860;48.066;14.124;2023-07-13T02:36:26;96558.84;;;20.17;58.77
49044;BME280;34860;48.066;14.124;2023-07-13T02:39:15;96552.94;;;20.14;58.76
49044;BME280;34860;48.066;14.124;2023-07-13T02:42:06;96541.41;;;20.12;59.00
49044;BME280;34860;48.066;14.124;2023-07-13T02:44:56;96542.16;;;20.13;58.94
49044;BME280;34860;48.066;14.124;2023-07-13T02:47:47;96534.72;;;20.10;59.03
49044;BME280;34860;48.066;14.124;2023-07-13T02:50:36;96533.19;;;20.09;59.00
49044;BME280;34860;48.066;14.124;2023-07-13T02:53:24;96522.66;;;20.09;59.12
49044;BME280;34860;48.066;14.124;2023-07-13T02:56:13;96519.09;;;20.09;59.05
49044;BME280;34860;48.066;14.124;2023-07-13T02:59:03;96514.19;;;20.09;59.22
49044;BME280;34860;48.066;14.124;2023-07-13T03:01:51;96514.97;;;20.10;59.11
49044;BME280;34860;48.066;14.124;2023-07-13T03:04:43;96513.44;;;20.09;59.19
49044;BME280;34860;48.066;14.124;2023-07-13T03:07:32;96521.41;;;20.10;59.18
49044;BME280;34860;48.066;14.124;2023-07-13T03:10:22;96526.00;;;20.08;59.31
49044;BME280;34860;48.066;14.124;2023-07-13T03:13:12;96516.25;;;20.09;59.35
49044;BME280;34860;48.066;14.124;2023-07-13T03:16:03;96525.22;;;20.07;59.21
49044;BME280;34860;48.066;14.124;2023-07-13T03:18:51;96526.00;;;20.08;59.32
49044;BME280;34860;48.066;14.124;2023-07-13T03:21:43;96518.28;;;20.08;59.47
49044;BME280;34860;48.066;14.124;2023-07-13T03:24:32;96525.72;;;20.06;59.35
49044;BME280;34860;48.066;14.124;2023-07-13T03:27:22;96528.56;;;20.06;59.34
49044;BME280;34860;48.066;14.124;2023-07-13T03:30:11;96527.75;;;20.05;59.50
49044;BME280;34860;48.066;14.124;2023-07-13T03:33:01;96528.06;;;20.07;59.38
49044;BME280;34860;48.066;14.124;2023-07-13T03:35:51;96529.31;;;20.06;59.24
49044;BME280;34860;48.066;14.124;2023-07-13T03:38:41;96520.09;;;20.06;59.41
49044;BME280;34860;48.066;14.124;2023-07-13T03:41:30;96515.97;;;20.07;59.37
49044;BME280;34860;48.066;14.124;2023-07-13T03:44:19;96527.25;;;20.07;59.52
49044;BME280;34860;48.066;14.124;2023-07-13T03:47:12;96527.25;;;20.07;59.48
49044;BME280;34860;48.066;14.124;2023-07-13T03:50:01;96529.31;;;20.06;59.55
49044;BME280;34860;48.066;14.124;2023-07-13T03:52:50;96524.44;;;20.07;59.58
49044;BME280;34860;48.066;14.124;2023-07-13T03:55:40;96515.22;;;20.06;59.49
49044;BME280;34860;48.066;14.124;2023-07-13T03:58:31;96518.03;;;20.06;59.62
49044;BME280;34860;48.066;14.124;2023-07-13T04:01:27;96521.91;;;20.09;59.67
49044;BME280;34860;48.066;14.124;2023-07-13T04:04:16;96526.50;;;20.06;59.80
49044;BME280;34860;48.066;14.124;2023-07-13T04:07:05;96538.03;;;20.08;59.69
49044;BME280;34860;48.066;14.124;2023-07-13T04:09:57;96542.91;;;20.08;59.73
49044;BME280;34860;48.066;14.124;2023-07-13T04:12:48;96534.97;;;20.06;59.80
49044;BME280;34860;48.066;14.124;2023-07-13T04:15:36;96534.19;;;20.06;59.76
49044;BME280;34860;48.066;14.124;2023-07-13T04:18:25;96524.19;;;20.05;59.92
49044;BME280;34860;48.066;14.124;2023-07-13T04:21:14;96524.19;;;20.05;60.08
49044;BME280;34860;48.066;14.124;2023-07-13T04:24:04;96519.28;;;20.05;59.87
49044;BME280;34860;48.066;14.124;2023-07-13T04:26:52;96520.84;;;20.06;60.02
49044;BME280;34860;48.066;14.124;2023-07-13T04:29:42;96526.50;;;20.06;60.09
49044;BME280;34860;48.066;14.124;2023-07-13T04:32:31;96536.78;;;20.09;60.12
49044;BME280;34860;48.066;14.124;2023-07-13T04:35:20;96531.63;;;20.08;60.09
49044;BME280;34860;48.066;14.124;2023-07-13T04:38:09;96521.13;;;20.08;60.12
49044;BME280;34860;48.066;14.124;2023-07-13T04:41:00;96523.44;;;20.10;60.07
49044;BME280;34860;48.066;14.124;2023-07-13T04:43:50;96527.03;;;20.10;60.02
49044;BME280;34860;48.066;14.124;2023-07-13T04:46:42;96519.34;;;20.11;60.17
49044;BME280;34860;48.066;14.124;2023-07-13T04:49:31;96523.97;;;20.14;60.16
49044;BME280;34860;48.066;14.124;2023-07-13T04:52:19;96521.91;;;20.14;60.08
49044;BME280;34860;48.066;14.124;2023-07-13T04:55:08;96524.75;;;20.14;60.21
49044;BME280;34860;48.066;14.124;2023-07-13T04:57:57;96517.03;;;20.15;60.22
49044;BME280;34860;48.066;14.124;2023-07-13T05:00:47;96517.31;;;20.17;60.14
49044;BME280;34860;48.066;14.124;2023-07-13T05:03:37;96512.69;;;20.20;60.24
49044;BME280;34860;48.066;14.124;2023-07-13T05:06:25;96524.28;;;20.22;60.21
49044;BME280;34860;48.066;14.124;2023-07-13T05:09:15;96528.63;;;20.23;60.31
49044;BME280;34860;48.066;14.124;2023-07-13T05:12:05;96530.94;;;20.24;60.17
49044;BME280;34860;48.066;14.124;2023-07-13T05:14:54;96543.28;;;20.27;60.26
49044;BME280;34860;48.066;14.124;2023-07-13T05:17:42;96542.00;;;20.28;60.26
49044;BME280;34860;48.066;14.124;2023-07-13T05:20:33;96538.16;;;20.31;60.24
49044;BME280;34860;48.066;14.124;2023-07-13T05:23:21;96545.34;;;20.32;60.18
49044;BME280;34860;48.066;14.124;2023-07-13T05:26:11;96552.03;;;20.35;60.27
49044;BME280;34860;48.066;14.124;2023-07-13T05:28:59;96546.41;;;20.35;60.27
49044;BME280;34860;48.066;14.124;2023-07-13T05:31:49;96556.38;;;20.36;60.09
49044;BME280;34860;48.066;14.124;2023-07-13T05:34:37;96553.31;;;20.33;60.27
49044;BME280;34860;48.066;14.124;2023-07-13T05:37:28;96554.06;;;20.34;60.22
49044;BME280;34860;48.066;14.124;2023-07-13T05:40:17;96562.28;;;20.32;60.03
49044;BME280;34860;48.066;14.124;2023-07-13T05:43:06;96562.28;;;20.32;60.18
49044;BME280;34860;48.066;14.124;2023-07-13T05:45:56;96562.28;;;20.32;60.31
49044;BME280;34860;48.066;14.124;2023-07-13T05:48:44;96567.16;;;20.31;60.36
49044;BME280;34860;48.066;14.124;2023-07-13T05:51:33;96563.53;;;20.31;60.18
49044;BME280;34860;48.066;14.124;2023-07-13T05:54:23;96564.34;;;20.31;60.31
49044;BME280;34860;48.066;14.124;2023-07-13T05:57:12;96569.47;;;20.33;60.22
49044;BME280;34860;48.066;14.124;2023-07-13T06:00:06;96575.38;;;20.35;60.26
49044;BME280;34860;48.066;14.124;2023-07-13T06:03:01;96585.13;;;20.34;60.20
49044;BME280;34860;48.066;14.124;2023-07-13T06:05:49;96593.59;;;20.34;60.12
49044;BME280;34860;48.066;14.124;2023-07-13T06:08:38;96592.81;;;20.33;60.35
49044;BME280;34860;48.066;14.124;2023-07-13T06:11:29;96596.91;;;20.32;60.38
49044;BME280;34860;48.066;14.124;2023-07-13T06:14:18;96593.31;;;20.32;60.30
49044;BME280;34860;48.066;14.124;2023-07-13T06:17:09;96589.75;;;20.31;60.34
49044;BME280;34860;48.066;14.124;2023-07-13T06:19:58;96601.78;;;20.32;60.34
49044;BME280;34860;48.066;14.124;2023-07-13T06:22:47;96613.59;;;20.30;60.20
49044;BME280;34860;48.066;14.124;2023-07-13T06:25:36;96605.13;;;20.30;60.36
49044;BME280;34860;48.066;14.124;2023-07-13T06:28:26;96610.00;;;20.30;60.39
49044;BME280;34860;48.066;14.124;2023-07-13T06:31:15;96613.31;;;20.28;60.40
49044;BME280;34860;48.066;14.124;2023-07-13T06:34:04;96606.91;;;20.28;60.29
49044;BME280;34860;48.066;14.124;2023-07-13T06:36:53;96600.97;;;20.26;60.30
49044;BME280;34860;48.066;14.124;2023-07-13T06:39:41;96608.69;;;20.25;60.31
49044;BME280;34860;48.066;14.124;2023-07-13T06:42:30;96605.38;;;20.27;60.30
49044;BME280;34860;48.066;14.124;2023-07-13T06:45:21;96598.16;;;20.26;60.30
49044;BME280;34860;48.066;14.124;2023-07-13T06:48:09;96609.44;;;20.26;60.33
49044;BME280;34860;48.066;14.124;2023-07-13T06:50:58;96613.81;;;20.27;60.39
49044;BME280;34860;48.066;14.124;2023-07-13T06:53:47;96616.16;;;20.28;60.40
49044;BME280;34860;48.066;14.124;2023-07-13T06:56:36;96624.09;;;20.30;60.35
49044;BME280;34860;48.066;14.124;2023-07-13T06:59:25;96640.81;;;20.33;60.36
49044;BME280;34860;48.066;14.124;2023-07-13T07:02:15;96637.72;;;20.37;60.48
49044;BME280;34860;48.066;14.124;2023-07-13T07:05:05;96633.91;;;20.40;60.52
49044;BME280;34860;48.066;14.124;2023-07-13T07:07:55;96632.91;;;20.43;60.43
49044;BME280;34860;48.066;14.124;2023-07-13T07:10:43;96643.94;;;20.47;60.50
49044;BME280;34860;48.066;14.124;2023-07-13T07:13:33;96641.16;;;20.53;60.41
49044;BME280;34860;48.066;14.124;2023-07-13T07:16:24;96645.31;;;20.57;60.39
49044;BME280;34860;48.066;14.124;2023-07-13T07:19:15;96647.38;;;20.62;60.49
49044;BME280;34860;48.066;14.124;2023-07-13T07:22:04;96655.13;;;20.67;60.48
49044;BME280;34860;48.066;14.124;2023-07-13T07:24:53;96654.91;;;20.71;60.15
49044;BME280;34860;48.066;14.124;2023-07-13T07:27:42;96659.00;;;20.76;60.24
49044;BME280;34860;48.066;14.124;2023-07-13T07:30:34;96655.97;;;20.79;60.26
49044;BME280;34860;48.066;14.124;2023-07-13T07:33:25;96669.34;;;20.84;60.11
49044;BME280;34860;48.066;14.124;2023-07-13T07:36:16;96662.16;;;20.89;60.06
49044;BME280;34860;48.066;14.124;2023-07-13T07:39:08;96657.81;;;20.94;59.88
49044;BME280;34860;48.066;14.124;2023-07-13T07:41:59;96660.41;;;20.97;60.07
49044;BME280;34860;48.066;14.124;2023-07-13T07:44:48;96658.38;;;21.03;60.13
49044;BME280;34860;48.066;14.124;2023-07-13T07:47:36;96656.84;;;21.08;59.90
49044;BME280;34860;48.066;14.124;2023-07-13T07:50:25;96661.75;;;21.13;59.99
49044;BME280;34860;48.066;14.124;2023-07-13T07:53:15;96658.16;;;21.18;59.90
49044;BME280;34860;48.066;14.124;2023-07-13T07:56:03;96663.84;;;21.24;59.80
49044;BME280;34860;48.066;14.124;2023-07-13T07:59:12;96658.47;;;21.32;59.87
49044;BME280;34860;48.066;14.124;2023-07-13T08:02:11;96662.84;;;21.38;59.81
49044;BME280;34860;48.066;14.124;2023-07-13T08:05:22;96679.28;;;21.46;59.67
49044;BME280;34860;48.066;14.124;2023-07-13T08:08:26;96672.94;;;21.51;59.60
49044;BME280;34860;48.066;14.124;2023-07-13T08:11:15;96667.78;;;21.55;59.60
49044;BME280;34860;48.066;14.124;2023-07-13T08:14:08;96678.59;;;21.62;59.54
49044;BME280;34860;48.066;14.124;2023-07-13T08:16:57;96686.06;;;21.65;59.66
49044;BME280;34860;48.066;14.124;2023-07-13T08:19:45;96685.31;;;21.70;59.55
49044;BME280;34860;48.066;14.124;2023-07-13T08:22:35;96689.16;;;21.73;59.47
49044;BME280;34860;48.066;14.124;2023-07-13T08:25:25;96686.34;;;21.79;59.62
49044;BME280;34860;48.066;14.124;2023-07-13T08:28:13;96706.66;;;21.83;59.50
49044;BME280;34860;48.066;14.124;2023-07-13T08:31:02;96706.66;;;21.88;59.54
49044;BME280;34860;48.066;14.124;2023-07-13T08:33:51;96710.78;;;21.93;59.34
49044;BME280;34860;48.066;14.124;2023-07-13T08:36:39;96702.53;;;21.95;59.36
49044;BME280;34860;48.066;14.124;2023-07-13T08:39:27;96706.94;;;21.96;59.28
49044;BME280;34860;48.066;14.124;2023-07-13T08:42:26;96715.66;;;21.98;59.36
49044;BME280;34860;48.066;14.124;2023-07-13T08:45:19;96705.91;;;21.99;59.27
49044;BME280;34860;48.066;14.124;2023-07-13T08:48:13;96716.97;;;21.97;59.42
49044;BME280;34860;48.066;14.124;2023-07-13T08:51:11;96711.31;;;21.97;59.42
49044;BME280;34860;48.066;14.124;2023-07-13T08:54:02;96716.47;;;21.99;59.32
49044;BME280;34860;48.066;14.124;2023-07-13T08:56:53;96717.97;;;22.00;59.43
49044;BME280;34860;48.066;14.124;2023-07-13T08:59:43;96722.88;;;21.99;59.59
49044;BME280;34860;48.066;14.124;2023-07-13T09:02:41;96720.56;;;21.98;59.30
49044;BME280;34860;48.066;14.124;2023-07-13T09:05:33;96731.38;;;21.99;59.14
49044;BME280;34860;48.066;14.124;2023-07-13T09:08:33;96725.72;;;21.99;59.11
49044;BME280;34860;48.066;14.124;2023-07-13T09:11:36;96727.78;;;21.99;59.10
49044;BME280;34860;48.066;14.124;2023-07-13T09:14:37;96736.53;;;22.01;58.98
49044;BME280;34860;48.066;14.124;2023-07-13T09:17:31;96735.22;;;22.02;58.91
49044;BME280;34860;48.066;14.124;2023-07-13T09:20:27;96737.81;;;22.05;58.82
49044;BME280;34860;48.066;14.124;2023-07-13T09:23:20;96744.50;;;22.08;58.52
49044;BME280;34860;48.066;14.124;2023-07-13T09:26:12;96758.41;;;22.11;59.03
49044;BME280;34860;48.066;14.124;2023-07-13T09:29:10;96751.19;;;22.10;58.65
49044;BME280;34860;48.066;14.124;2023-07-13T09:32:04;96761.25;;;22.11;58.51
49044;BME280;34860;48.066;14.124;2023-07-13T09:34:57;96763.03;;;22.09;58.52
49044;BME280;34860;48.066;14.124;2023-07-13T09:37:49;96766.63;;;22.09;58.49
49044;BME280;34860;48.066;14.124;2023-07-13T09:40:44;96763.78;;;22.09;58.45
49044;BME280;34860;48.066;14.124;2023-07-13T09:43:35;96776.94;;;22.07;58.33
49044;BME280;34860;48.066;14.124;2023-07-13T09:46:30;96769.72;;;22.06;58.43
49044;BME280;34860;48.066;14.124;2023-07-13T09:49:14;96781.53;;;22.04;58.27
49044;BME280;34860;48.066;14.124;2023-07-13T09:52:25;96774.84;;;22.02;58.35
49044;BME280;34860;48.066;14.124;2023-07-13T09:55:25;96776.91;;;22.01;58.45
49044;BME280;34860;48.066;14.124;2023-07-13T09:58:16;96769.19;;;22.02;58.46
49044;BME280;34860;48.066;14.124;2023-07-13T10:01:06;96779.22;;;22.03;58.31
49044;BME280;34860;48.066;14.124;2023-07-13T10:03:57;96770.97;;;22.05;58.48
49044;BME280;34860;48.066;14.124;2023-07-13T10:06:46;96763.28;;;22.05;58.49
49044;BME280;34860;48.066;14.124;2023-07-13T10:09:40;96766.88;;;22.06;58.54
49044;BME280;34860;48.066;14.124;2023-07-13T10:12:30;96764.03;;;22.06;58.59
49044;BME280;34860;48.066;14.124;2023-07-13T10:15:25;96760.44;;;22.05;58.50
49044;BME280;34860;48.066;14.124;2023-07-13T10:18:13;96764.03;;;22.06;58.42
49044;BME280;34860;48.066;14.124;2023-07-13T10:21:11;96758.91;;;22.04;58.43
49044;BME280;34860;48.066;14.124;2023-07-13T10:24:12;96758.13;;;22.04;58.41
49044;BME280;34860;48.066;14.124;2023-07-13T10:27:12;96767.13;;;22.02;58.36
49044;BME280;34860;48.066;14.124;2023-07-13T10:30:08;96767.66;;;22.01;58.33
49044;BME280;34860;48.066;14.124;2023-07-13T10:33:03;96762.50;;;21.99;58.37
49044;BME280;34860;48.066;14.124;2023-07-13T10:35:59;96764.56;;;21.99;58.22
49044;BME280;34860;48.066;14.124;2023-07-13T10:38:51;96765.06;;;21.97;58.30
49044;BME280;34860;48.066;14.124;2023-07-13T10:41:42;96779.75;;;21.95;58.23
49044;BME280;34860;48.066;14.124;2023-07-13T10:44:36;96773.78;;;21.93;58.19
49044;BME280;34860;48.066;14.124;2023-07-13T10:47:26;96771.47;;;21.92;58.09
49044;BME280;34860;48.066;14.124;2023-07-13T10:50:17;96778.44;;;21.91;58.17
49044;BME280;34860;48.066;14.124;2023-07-13T10:53:18;96781.78;;;21.89;58.00
49044;BME280;34860;48.066;14.124;2023-07-13T10:56:22;96785.88;;;21.88;58.16
49044;BME280;34860;48.066;14.124;2023-07-13T10:59:13;96792.06;;;21.87;57.99
49044;BME280;34860;48.066;14.124;2023-07-13T11:02:21;96788.19;;;21.84;58.14
49044;BME280;34860;48.066;14.124;2023-07-13T11:05:25;96785.88;;;21.83;58.20
49044;BME280;34860;48.066;14.124;2023-07-13T11:08:19;96776.59;;;21.82;58.11
49044;BME280;34860;48.066;14.124;2023-07-13T11:11:37;96772.75;;;21.80;57.94
49044;BME280;34860;48.066;14.124;2023-07-13T11:14:29;96772.47;;;21.77;58.12
49044;BME280;34860;48.066;14.124;2023-07-13T11:17:34;96766.81;;;21.77;58.04
49044;BME280;34860;48.066;14.124;2023-07-13T11:20:34;96768.63;;;21.75;58.19
49044;BME280;34860;48.066;14.124;2023-07-13T11:23:29;96761.41;;;21.74;58.11
49044;BME280;34860;48.066;14.124;2023-07-13T11:26:39;96755.50;;;21.72;58.40
49044;BME280;34860;48.066;14.124;2023-07-13T11:29:34;96768.34;;;21.73;58.38
49044;BME280;34860;48.066;14.124;2023-07-13T11:32:31;96766.53;;;21.70;58.46
49044;BME280;34860;48.066;14.124;2023-07-13T11:35:22;96764.00;;;21.72;58.44
49044;BME280;34860;48.066;14.124;2023-07-13T11:38:17;96768.13;;;21.76;58.69
49044;BME280;34860;48.066;14.124;2023-07-13T11:41:14;96777.91;;;21.81;58.61
49044;BME280;34860;48.066;14.124;2023-07-13T11:44:13;96777.13;;;21.86;58.55
49044;BME280;34860;48.066;14.124;2023-07-13T11:47:09;96772.00;;;21.90;58.60
49044;BME280;34860;48.066;14.124;2023-07-13T11:49:59;96782.56;;;21.95;58.56
49044;BME280;34860;48.066;14.124;2023-07-13T11:52:49;96779.75;;;21.95;58.43
49044;BME280;34860;48.066;14.124;2023-07-13T11:55:40;96780.00;;;21.98;58.51
49044;BME280;34860;48.066;14.124;2023-07-13T11:58:29;96777.94;;;21.98;58.35
49044;BME280;34860;48.066;14.124;2023-07-13T12:01:21;96774.59;;;22.00;58.30
49044;BME280;34860;48.066;14.124;2023-07-13T12:04:22;96767.41;;;21.99;58.34
49044;BME280;34860;48.066;14.124;2023-07-13T12:07:17;96763.78;;;21.98;58.37
49044;BME280;34860;48.066;14.124;2023-07-13T12:10:18;96754.78;;;22.00;58.32
49044;BME280;34860;48.066;14.124;2023-07-13T12:13:09;96757.59;;;22.00;58.25
49044;BME280;34860;48.066;14.124;2023-07-13T12:16:00;96760.44;;;22.00;58.18
49044;BME280;34860;48.066;14.124;2023-07-13T12:18:48;96751.44;;;22.01;58.24
49044;BME280;34860;48.066;14.124;2023-07-13T12:21:38;96739.09;;;21.99;58.32
49044;BME280;34860;48.066;14.124;2023-07-13T12:24:35;96744.22;;;22.00;58.54
49044;BME280;34860;48.066;14.124;2023-07-13T12:27:27;96742.94;;;22.01;58.33
49044;BME280;34860;48.066;14.124;2023-07-13T12:30:25;96736.00;;;22.02;58.64
49044;BME280;34860;48.066;14.124;2023-07-13T12:33:16;96744.50;;;22.02;58.59
49044;BME280;34860;48.066;14.124;2023-07-13T12:36:06;96738.56;;;22.00;58.52
49044;BME280;34860;48.066;14.124;2023-07-13T12:38:54;96741.91;;;22.04;58.53
49044;BME280;34860;48.066;14.124;2023-07-13T12:41:48;96734.69;;;22.03;58.55
49044;BME280;34860;48.066;14.124;2023-07-13T12:44:41;96736.50;;;22.06;58.66
49044;BME280;34860;48.066;14.124;2023-07-13T12:47:30;96732.94;;;22.11;58.65
49044;BME280;34860;48.066;14.124;2023-07-13T12:50:22;96726.22;;;22.14;58.56
49044;BME280;34860;48.066;14.124;2023-07-13T12:53:13;96728.28;;;22.20;58.53
49044;BME280;34860;48.066;14.124;2023-07-13T12:56:03;96727.00;;;22.26;58.54
49044;BME280;34860;48.066;14.124;2023-07-13T12:58:58;96729.09;;;22.31;58.71
49044;BME280;34860;48.066;14.124;2023-07-13T13:01:47;96732.41;;;22.41;58.90
49044;BME280;34860;48.066;14.124;2023-07-13T13:04:39;96728.28;;;22.48;58.36
49044;BME280;34860;48.066;14.124;2023-07-13T13:07:29;96726.22;;;22.54;58.32
49044;BME280;34860;48.066;14.124;2023-07-13T13:10:18;96713.34;;;22.59;58.39
49044;BME280;34860;48.066;14.124;2023-07-13T13:13:08;96740.88;;;22.64;58.36
49044;BME280;34860;48.066;14.124;2023-07-13T13:16:09;96723.66;;;22.67;58.56
49044;BME280;34860;48.066;14.124;2023-07-13T13:19:00;96725.97;;;22.69;58.42
49044;BME280;34860;48.066;14.124;2023-07-13T13:21:49;96720.53;;;22.71;58.40
49044;BME280;34860;48.066;14.124;2023-07-13T13:24:39;96724.41;;;22.74;58.60
49044;BME280;34860;48.066;14.124;2023-07-13T13:27:28;96725.19;;;22.74;58.35
49044;BME280;34860;48.066;14.124;2023-07-13T13:30:17;96718.75;;;22.74;58.20
49044;BME280;34860;48.066;14.124;2023-07-13T13:33:10;96718.75;;;22.74;58.22
49044;BME280;34860;48.066;14.124;2023-07-13T13:36:00;96719.78;;;22.71;58.31
49044;BME280;34860;48.066;14.124;2023-07-13T13:38:50;96715.41;;;22.70;58.18
49044;BME280;34860;48.066;14.124;2023-07-13T13:41:38;96714.88;;;22.65;58.33
49044;BME280;34860;48.066;14.124;2023-07-13T13:44:27;96710.53;;;22.64;58.21
49044;BME280;34860;48.066;14.124;2023-07-13T13:47:29;96709.47;;;22.62;58.20
49044;BME280;34860;48.066;14.124;2023-07-13T13:50:22;96708.22;;;22.63;58.03
49044;BME280;34860;48.066;14.124;2023-07-13T13:53:12;96706.66;;;22.62;57.90
49044;BME280;34860;48.066;14.124;2023-07-13T13:56:01;96706.13;;;22.63;58.13
49044;BME280;34860;48.066;14.124;2023-07-13T13:58:49;96713.84;;;22.68;57.94
49044;BME280;34860;48.066;14.124;2023-07-13T14:01:45;96695.03;;;22.77;57.70
49044;BME280;34860;48.066;14.124;2023-07-13T14:04:35;96707.09;;;22.89;57.65
49044;BME280;34860;48.066;14.124;2023-07-13T14:07:25;96701.13;;;23.03;57.63
49044;BME280;34860;48.066;14.124;2023-07-13T14:10:15;96705.19;;;23.25;57.87
49044;BME280;34860;48.066;14.124;2023-07-13T14:13:07;96707.91;;;23.53;57.46
49044;BME280;34860;48.066;14.124;2023-07-13T14:15:59;96702.56;;;23.86;57.15
49044;BME280;34860;48.066;14.124;2023-07-13T14:18:49;96698.69;;;24.19;57.07
49044;BME280;34860;48.066;14.124;2023-07-13T14:21:37;96709.97;;;24.55;56.92
49044;BME280;34860;48.066;14.124;2023-07-13T14:24:27;96710.97;;;24.88;56.63
49044;BME280;34860;48.066;14.124;2023-07-13T14:27:16;96712.25;;;25.12;56.14
49044;BME280;34860;48.066;14.124;2023-07-13T14:30:12;96705.63;;;25.28;55.66
49044;BME280;34860;48.066;14.124;2023-07-13T14:33:08;96704.72;;;25.39;55.91
49044;BME280;34860;48.066;14.124;2023-07-13T14:35:57;96717.72;;;25.53;55.76
49044;BME280;34860;48.066;14.124;2023-07-13T14:38:45;96721.31;;;25.73;55.78
49044;BME280;34860;48.066;14.124;2023-07-13T14:41:36;96717.09;;;25.99;55.18
49044;BME280;34860;48.066;14.124;2023-07-13T14:44:26;96716.66;;;26.27;55.05
49044;BME280;34860;48.066;14.124;2023-07-13T14:47:16;96719.03;;;26.55;55.02
49044;BME280;34860;48.066;14.124;2023-07-13T14:50:05;96716.47;;;26.84;54.44
49044;BME280;34860;48.066;14.124;2023-07-13T14:52:56;96712.75;;;27.16;54.42
49044;BME280;34860;48.066;14.124;2023-07-13T14:55:44;96709.75;;;27.48;54.11
49044;BME280;34860;48.066;14.124;2023-07-13T14:58:35;96712.41;;;27.81;53.86